Time;durP1;ratioP1;P1;durP2;ratioP2;P2;SDS_P1;SDS_P2;PMS_P1;PMS_P2;Temp;Humidity;BMP_temperature;BMP_pressure;BME280_temperature;BME280_humidity;BME280_pressure;Samples;Min_cycle;Max_cycle;Signal;HPM_P1;HPM_P2
2022/11/16 00:01:52;;;;;;;;;;;11.90;69.40;;;7.28;100.00;94389.94;5011122;28;20237;-58
2022/11/16 00:04:24;;;;;;;;;;;11.90;69.50;;;7.31;100.00;94386.75;5016984;28;20472;-57
2022/11/16 00:06:50;;;;;;;;;;;11.90;69.50;;;7.33;100.00;94382.78;5010667;28;19916;-57
2022/11/16 00:09:22;;;;;;;;;;;11.90;69.60;;;7.33;100.00;94382.78;4993946;28;19918;-56
2022/11/16 00:11:53;;;;;;;;;;;11.90;69.60;;;7.37;100.00;94383.81;4990208;28;19944;-57
2022/11/16 00:14:33;;;;;;;;;;;11.90;69.60;;;7.36;100.00;94384.06;4989323;28;19932;-58
2022/11/16 00:17:00;;;;;;;;;;;11.90;69.60;;;7.32;100.00;94386.47;4983014;28;19944;-57
2022/11/16 00:19:29;;;;;;;;;;;11.90;69.60;;;7.36;100.00;94389.38;5009062;28;19913;-58
2022/11/16 00:22:01;;;;;;;;;;;11.90;69.60;;;7.37;100.00;94389.09;5008808;28;20291;-57
2022/11/16 00:24:27;;;;;;;;;;;11.90;69.60;;;7.38;100.00;94381.94;5009733;28;19948;-54
2022/11/16 00:26:54;;;;;;;;;;;12.00;69.70;;;7.38;100.00;94382.72;5009170;28;20402;-55
2022/11/16 00:29:25;;;;;;;;;;;12.00;69.70;;;7.35;100.00;94393.09;4989757;28;19944;-57
2022/11/16 00:31:52;;;;;;;;;;;11.90;69.70;;;7.36;100.00;94397.31;4989386;28;19913;-55
2022/11/16 00:34:20;;;;;;;;;;;11.90;69.70;;;7.38;100.00;94395.19;4989473;28;20315;-55
2022/11/16 00:36:46;;;;;;;;;;;11.90;69.70;;;7.38;100.00;94388.03;4989507;28;20288;-54
2022/11/16 00:39:15;;;;;;;;;;;11.90;69.80;;;7.41;100.00;94394.66;4990420;28;19913;-56
2022/11/16 00:41:42;;;;;;;;;;;11.90;69.80;;;7.41;100.00;94387.50;5005967;28;20005;-54
2022/11/16 00:44:09;;;;;;;;;;;12.00;69.90;;;7.44;100.00;94388.00;4989789;28;19909;-56
2022/11/16 00:46:39;;;;;;;;;;;12.00;69.90;;;7.42;100.00;94380.31;4988916;28;20335;-56
2022/11/16 00:49:23;;;;;;;;;;;12.00;70.00;;;7.43;100.00;94381.94;4973558;28;19909;-58
2022/11/16 00:51:57;;;;;;;;;;;12.00;69.90;;;7.44;100.00;94386.16;4989014;28;19909;-58
2022/11/16 00:54:26;;;;;;;;;;;12.00;69.90;;;7.42;100.00;94385.63;4989699;28;20387;-56
2022/11/16 00:56:58;;;;;;;;;;;12.00;69.80;;;7.42;100.00;94390.94;4989733;28;19922;-58
2022/11/16 00:59:32;;;;;;;;;;;12.00;69.80;;;7.39;100.00;94405.50;4970461;28;20477;-58
2022/11/16 01:02:01;;;;;;;;;;;12.00;69.80;;;7.38;100.00;94413.75;4977767;28;19956;-57
2022/11/16 01:04:27;;;;;;;;;;;12.00;69.90;;;7.36;100.00;94419.31;5003208;28;19909;-53
2022/11/16 01:06:53;;;;;;;;;;;12.00;69.90;;;7.38;100.00;94416.38;5025434;28;20249;-56
2022/11/16 01:09:21;;;;;;;;;;;12.00;69.90;;;7.35;100.00;94419.59;4994024;28;19964;-54
2022/11/16 01:12:08;;;;;;;;;;;12.00;69.90;;;7.33;100.00;94421.69;4990785;28;19936;-55
2022/11/16 01:14:45;;;;;;;;;;;12.00;69.90;;;7.35;100.00;94432.81;4975146;28;19916;-53
2022/11/16 01:17:14;;;;;;;;;;;11.90;70.00;;;7.33;100.00;94429.66;4996693;28;19932;-55
2022/11/16 01:19:40;;;;;;;;;;;11.90;70.10;;;7.38;100.00;94434.94;5010506;28;20302;-55
2022/11/16 01:22:09;;;;;;;;;;;11.90;70.10;;;7.39;100.00;94429.34;5008542;28;20011;-55
2022/11/16 01:24:35;;;;;;;;;;;11.90;70.10;;;7.41;100.00;94443.13;4990719;28;20307;-58
2022/11/16 01:27:03;;;;;;;;;;;11.90;70.20;;;7.42;100.00;94435.97;4989031;28;19916;-51
2022/11/16 01:29:30;;;;;;;;;;;11.90;70.30;;;7.46;100.00;94442.31;4997763;28;19913;-56
2022/11/16 01:31:59;;;;;;;;;;;11.90;70.30;;;7.47;100.00;94446.56;5025461;28;19913;-56
2022/11/16 01:34:25;;;;;;;;;;;11.90;70.40;;;7.48;100.00;94450.78;5005855;28;19910;-53
2022/11/16 01:36:51;;;;;;;;;;;11.90;70.40;;;7.48;100.00;94456.06;4996985;28;19928;-58
2022/11/16 01:39:17;;;;;;;;;;;11.90;70.50;;;7.51;100.00;94452.09;5007889;28;19960;-58
2022/11/16 01:41:44;;;;;;;;;;;12.00;70.50;;;7.48;100.00;94460.59;4992499;28;20000;-55
2022/11/16 01:44:31;;;;;;;;;;;11.90;70.40;;;7.51;100.00;94460.84;5012872;28;19909;-53
2022/11/16 01:47:11;;;;;;;;;;;12.00;70.50;;;7.55;100.00;94463.72;5013280;28;19913;-53
2022/11/16 01:49:44;;;;;;;;;;;11.90;70.50;;;7.56;100.00;94460.03;5012340;28;19917;-53
2022/11/16 01:52:25;;;;;;;;;;;12.00;70.60;;;7.60;100.00;94463.72;4994960;28;20351;-57
2022/11/16 01:54:54;;;;;;;;;;;12.00;70.70;;;7.57;100.00;94459.75;5012383;28;19912;-58
2022/11/16 01:57:30;;;;;;;;;;;12.00;70.70;;;7.59;100.00;94468.22;5010640;28;20392;-55
2022/11/16 02:00:00;;;;;;;;;;;12.00;70.70;;;7.62;100.00;94472.97;4997121;28;19964;-56
2022/11/16 02:02:27;;;;;;;;;;;12.00;70.70;;;7.62;100.00;94470.34;5013176;28;20263;-54
2022/11/16 02:05:01;;;;;;;;;;;12.00;70.70;;;7.61;100.00;94475.88;4996060;28;20415;-56
2022/11/16 02:09:52;;;;;;;;;;;12.10;70.70;;;7.62;100.00;94482.78;5011863;28;19916;-56
2022/11/16 02:10:50;;;;;;;;;;;12.10;70.80;;;7.64;100.00;94483.31;5011930;28;20346;-58
2022/11/16 02:14:31;;;;;;;;;;;12.00;70.70;;;7.59;100.00;94475.38;4995915;28;20156;-58
2022/11/16 02:17:30;;;;;;;;;;;12.10;70.90;;;7.67;100.00;94481.97;4999839;28;19913;-55
2022/11/16 02:20:05;;;;;;;;;;;12.00;70.90;;;7.62;100.00;94475.63;5012026;28;20015;-58
2022/11/16 02:23:27;;;;;;;;;;;12.10;71.10;;;7.69;100.00;94469.25;5011135;28;19935;-53
2022/11/16 02:26:23;;;;;;;;;;;12.10;71.10;;;7.74;100.00;94467.38;5011689;28;19909;-54
2022/11/16 02:29:34;;;;;;;;;;;12.00;71.10;;;7.75;100.00;94461.00;5009599;28;19916;-55
2022/11/16 02:32:19;;;;;;;;;;;12.10;71.20;;;7.72;100.00;94466.03;4985126;28;20468;-57
2022/11/16 02:35:18;;;;;;;;;;;12.10;71.20;;;7.72;100.00;94471.34;4987137;28;19954;-55
2022/11/16 02:38:16;;;;;;;;;;;12.10;71.20;;;7.70;100.00;94458.34;5012070;28;19917;-55
2022/11/16 02:40:49;;;;;;;;;;;12.10;71.20;;;7.77;100.00;94460.69;5012624;28;19940;-52
2022/11/16 02:43:43;;;;;;;;;;;12.10;71.30;;;7.78;100.00;94455.13;5011600;28;20318;-56
2022/11/16 02:46:29;;;;;;;;;;;12.10;71.20;;;7.81;100.00;94462.53;5023273;28;19915;-58
2022/11/16 02:49:02;;;;;;;;;;;12.10;71.30;;;7.80;100.00;94460.16;5031412;28;19963;-58
2022/11/16 02:51:33;;;;;;;;;;;12.20;71.30;;;7.78;100.00;94460.44;5006180;28;19913;-57
2022/11/16 02:54:11;;;;;;;;;;;12.20;71.20;;;7.78;100.00;94460.44;5030163;28;19999;-57
2022/11/16 02:57:02;;;;;;;;;;;12.20;71.20;;;7.78;100.00;94462.31;5027275;28;19912;-55
2022/11/16 02:59:51;;;;;;;;;;;12.20;71.10;;;7.74;100.00;94459.41;5011551;28;20382;-58
2022/11/16 03:02:47;;;;;;;;;;;12.20;71.10;;;7.74;100.00;94463.91;5010717;28;19956;-56
2022/11/16 03:06:02;;;;;;;;;;;12.20;71.10;;;7.74;100.00;94459.41;5000754;28;19916;-51
2022/11/16 03:08:38;;;;;;;;;;;12.20;71.10;;;7.72;100.00;94458.88;5010364;28;20268;-58
2022/11/16 03:14:00;;;;;;;;;;;12.20;71.10;;;7.71;100.00;94451.19;5031381;28;19920;-55
2022/11/16 03:16:34;;;;;;;;;;;12.20;71.20;;;7.73;100.00;94449.84;5005643;28;19962;-52
2022/11/16 03:19:09;;;;;;;;;;;12.20;71.20;;;7.68;100.00;94435.84;5009618;28;19954;-56
2022/11/16 03:22:00;;;;;;;;;;;12.20;71.20;;;7.72;100.00;94428.94;5028472;28;20367;-56
2022/11/16 03:24:26;;;;;;;;;;;12.20;71.20;;;7.72;100.00;94420.97;5032166;28;19932;-54
2022/11/16 03:27:31;;;;;;;;;;;12.20;71.20;;;7.73;100.00;94426.00;5028190;28;19913;-54
2022/11/16 03:30:06;;;;;;;;;;;12.10;71.20;;;7.70;100.00;94433.72;5022510;28;20395;-58
2022/11/16 03:33:06;;;;;;;;;;;12.10;71.20;;;7.70;100.00;94423.09;5011285;28;19908;-57
2022/11/16 03:35:55;;;;;;;;;;;12.20;71.30;;;7.70;100.00;94434.50;5028337;28;19916;-58
2022/11/16 03:38:25;;;;;;;;;;;12.10;71.30;;;7.71;100.00;94422.84;5040484;23;19950;-53
2022/11/16 03:40:58;;;;;;;;;;;12.20;71.30;;;7.70;100.00;94426.53;5008077;28;19921;-49
2022/11/16 03:43:27;;;;;;;;;;;12.20;71.30;;;7.69;100.00;94424.97;5031594;28;20342;-51
2022/11/16 03:45:59;;;;;;;;;;;12.20;71.30;;;7.72;100.00;94434.25;4994105;28;19936;-51
2022/11/16 03:48:34;;;;;;;;;;;12.20;71.30;;;7.70;100.00;94421.25;5031481;28;19908;-50
2022/11/16 03:51:01;;;;;;;;;;;12.20;71.40;;;7.66;100.00;94433.47;5006946;28;19913;-49
2022/11/16 03:53:30;;;;;;;;;;;12.20;71.40;;;7.69;100.00;94430.28;5029465;28;19909;-54
2022/11/16 03:55:56;;;;;;;;;;;12.10;71.40;;;7.71;100.00;94438.75;5013534;28;19909;-50
2022/11/16 03:58:24;;;;;;;;;;;12.10;71.40;;;7.72;100.00;94439.53;5017487;28;20298;-54
2022/11/16 04:00:50;;;;;;;;;;;12.20;71.40;;;7.72;100.00;94445.63;5031039;28;20011;-53
2022/11/16 04:03:19;;;;;;;;;;;12.10;71.40;;;7.71;100.00;94445.88;5010916;28;20003;-53
2022/11/16 04:25:42;;;;;;;;;;;12.10;71.40;;;7.67;100.00;94424.44;5019059;28;19931;-50
2022/11/16 04:28:18;;;;;;;;;;;12.10;71.50;;;7.70;100.00;94431.06;5004396;28;19969;-54
2022/11/16 04:39:12;;;;;;;;;;;12.20;71.60;;;7.75;100.00;94423.88;5021751;28;19942;-52
2022/11/16 04:44:22;;;;;;;;;;;12.20;71.50;;;7.73;100.00;94422.56;5014053;28;19920;-53
2022/11/16 04:47:06;;;;;;;;;;;12.20;71.40;;;7.72;100.00;94424.44;5029352;28;20302;-57
2022/11/16 04:49:32;;;;;;;;;;;12.20;71.40;;;7.71;100.00;94422.84;5015012;28;19913;-54
2022/11/16 04:51:59;;;;;;;;;;;12.20;71.40;;;7.71;100.00;94419.38;5006121;28;19909;-54
2022/11/16 04:54:27;;;;;;;;;;;12.20;71.40;;;7.71;100.00;94424.69;5030709;28;20342;-55
2022/11/16 04:56:53;;;;;;;;;;;12.20;71.40;;;7.68;100.00;94427.88;5002624;28;19913;-52
2022/11/16 04:59:19;;;;;;;;;;;12.20;71.40;;;7.67;100.00;94415.69;5020566;28;19916;-51
2022/11/16 05:04:32;;;;;;;;;;;12.20;71.30;;;7.61;100.00;94418.38;5002872;28;19916;-54
2022/11/16 05:06:58;;;;;;;;;;;12.20;71.30;;;7.61;100.00;94412.28;5028373;28;20495;-51
2022/11/16 05:09:23;;;;;;;;;;;12.20;71.30;;;7.62;100.00;94414.69;5010098;28;19916;-54
2022/11/16 05:11:49;;;;;;;;;;;12.20;71.30;;;7.61;100.00;94414.94;5029094;28;19909;-51
2022/11/16 05:14:20;;;;;;;;;;;12.20;71.30;;;7.59;100.00;94403.84;5029542;28;19915;-60
2022/11/16 05:16:45;;;;;;;;;;;12.20;71.30;;;7.59;100.00;94401.19;5020417;28;19909;-50
2022/11/16 05:22:13;;;;;;;;;;;12.20;71.30;;;7.55;100.00;94402.78;5023499;28;19916;-53
2022/11/16 05:24:39;;;;;;;;;;;12.20;71.30;;;7.56;100.00;94407.81;5034238;28;20375;-53
2022/11/16 05:27:09;;;;;;;;;;;12.20;71.40;;;7.58;100.00;94410.19;5013146;28;19917;-52
2022/11/16 05:29:35;;;;;;;;;;;12.20;71.40;;;7.57;100.00;94404.09;5016257;28;19960;-54
2022/11/16 05:32:02;;;;;;;;;;;12.20;71.40;;;7.58;100.00;94408.34;5016377;28;20008;-56
2022/11/16 05:34:28;;;;;;;;;;;12.20;71.40;;;7.60;100.00;94416.78;5026714;28;19943;-56
2022/11/16 05:37:19;;;;;;;;;;;12.20;71.40;;;7.59;100.00;94407.28;5015951;28;20461;-49
2022/11/16 05:39:55;;;;;;;;;;;12.20;71.40;;;7.58;100.00;94411.00;5009226;28;19910;-50
2022/11/16 05:42:22;;;;;;;;;;;12.20;71.40;;;7.60;100.00;94408.84;5010693;28;19913;-50
2022/11/16 05:44:48;;;;;;;;;;;12.20;71.30;;;7.60;100.00;94411.50;4994551;28;19917;-58
2022/11/16 05:47:19;;;;;;;;;;;12.20;71.30;;;7.60;100.00;94403.53;5010194;28;19913;-52
2022/11/16 05:49:45;;;;;;;;;;;12.30;71.40;;;7.60;100.00;94413.34;4995312;28;19920;-50
2022/11/16 05:52:17;;;;;;;;;;;12.20;71.30;;;7.61;100.00;94410.41;5013561;28;19909;-52
2022/11/16 05:54:46;;;;;;;;;;;12.20;71.30;;;7.62;100.00;94411.25;5014374;28;19955;-50
2022/11/16 05:57:14;;;;;;;;;;;12.20;71.30;;;7.62;100.00;94411.25;5017053;28;20019;-55
2022/11/16 05:59:40;;;;;;;;;;;12.20;71.40;;;7.61;100.00;94420.22;5032025;28;19909;-51
2022/11/16 06:02:06;;;;;;;;;;;12.20;71.40;;;7.59;100.00;94423.19;5032888;28;19915;-52
2022/11/16 06:04:32;;;;;;;;;;;12.20;71.40;;;7.55;100.00;94419.50;5003333;28;20294;-57
2022/11/16 06:07:04;;;;;;;;;;;12.20;71.40;;;7.54;100.00;94419.75;5033477;28;19908;-55
2022/11/16 06:09:29;;;;;;;;;;;12.20;71.40;;;7.53;100.00;94426.91;5004231;28;19919;-51
2022/11/16 06:11:55;;;;;;;;;;;12.10;71.30;;;7.51;100.00;94426.38;5015524;28;20269;-50
2022/11/16 06:14:21;;;;;;;;;;;12.10;71.30;;;7.48;100.00;94436.75;5014580;28;19919;-53
2022/11/16 06:16:47;;;;;;;;;;;12.10;71.30;;;7.45;100.00;94435.41;4995850;28;19913;-51
2022/11/16 06:19:18;;;;;;;;;;;12.10;71.30;;;7.42;100.00;94434.09;5015821;28;19943;-50
2022/11/16 06:21:50;;;;;;;;;;;12.00;71.20;;;7.40;100.00;94438.13;4985512;28;19909;-51
2022/11/16 06:24:16;;;;;;;;;;;12.10;71.30;;;7.35;100.00;94440.78;5033436;28;19909;-55
2022/11/16 06:26:42;;;;;;;;;;;12.00;71.30;;;7.31;100.00;94440.53;5026501;28;19913;-50
2022/11/16 06:29:07;;;;;;;;;;;12.00;71.20;;;7.28;100.00;94441.06;5002671;28;20529;-54
2022/11/16 06:31:33;;;;;;;;;;;12.00;71.20;;;7.25;100.00;94446.91;4992133;28;20024;-52
2022/11/16 06:33:59;;;;;;;;;;;12.00;71.20;;;7.22;100.00;94444.81;4988357;28;19915;-55
2022/11/16 06:36:25;;;;;;;;;;;11.90;71.20;;;7.19;100.00;94448.78;4933645;28;19914;-49
2022/11/16 06:38:51;;;;;;;;;;;11.90;71.20;;;7.16;100.00;94444.03;4989673;28;20720;-57
2022/11/16 06:41:17;;;;;;;;;;;11.90;71.20;;;7.15;100.00;94441.66;4980486;28;19920;-51
2022/11/16 06:43:42;;;;;;;;;;;11.90;71.20;;;7.10;100.00;94447.75;4992000;28;19913;-49
2022/11/16 06:46:08;;;;;;;;;;;11.80;71.20;;;7.08;100.00;94441.94;4973460;28;19940;-53
2022/11/16 06:48:34;;;;;;;;;;;11.80;71.20;;;7.08;100.00;94449.06;4994970;28;20424;-52
2022/11/16 06:51:03;;;;;;;;;;;11.70;71.20;;;7.07;100.00;94450.94;4993762;28;19917;-52
2022/11/16 06:53:28;;;;;;;;;;;11.80;71.40;;;7.05;100.00;94450.44;4991740;28;19909;-49
2022/11/16 06:55:54;;;;;;;;;;;11.70;71.40;;;7.06;100.00;94451.22;4989150;28;19913;-54
2022/11/16 06:58:20;;;;;;;;;;;11.70;71.40;;;7.05;100.00;94466.31;4986091;28;19932;-51
2022/11/16 07:00:46;;;;;;;;;;;11.80;71.50;;;7.09;100.00;94455.97;4986470;28;19913;-51
2022/11/16 07:03:12;;;;;;;;;;;11.80;71.50;;;7.16;100.00;94462.56;4989949;28;19917;-50
2022/11/16 07:05:40;;;;;;;;;;;11.80;71.60;;;7.24;100.00;94465.69;4991153;28;19928;-51
2022/11/16 07:08:05;;;;;;;;;;;11.90;71.70;;;7.31;100.00;94463.59;4988968;28;19921;-53
2022/11/16 07:10:31;;;;;;;;;;;11.90;71.80;;;7.38;100.00;94467.50;4990825;28;19917;-55
2022/11/16 07:13:02;;;;;;;;;;;11.90;71.80;;;7.43;100.00;94464.06;4988543;28;19968;-56
2022/11/16 07:15:32;;;;;;;;;;;12.00;71.90;;;7.49;100.00;94451.56;4989515;28;19917;-52
2022/11/16 07:18:05;;;;;;;;;;;12.10;71.90;;;7.53;100.00;94448.13;4992129;28;19909;-50
2022/11/16 07:20:32;;;;;;;;;;;12.20;71.80;;;7.57;100.00;94464.25;5004677;28;20043;-59
2022/11/16 07:23:00;;;;;;;;;;;12.20;71.70;;;7.62;100.00;94465.03;4995716;28;19913;-56
2022/11/16 07:25:26;;;;;;;;;;;12.30;71.80;;;7.72;100.00;94472.13;4989170;28;19913;-54
2022/11/16 07:27:51;;;;;;;;;;;12.30;71.80;;;7.81;100.00;94475.00;4995768;28;19958;-50
2022/11/16 07:30:17;;;;;;;;;;;12.40;71.80;;;7.87;100.00;94472.06;4999642;28;19921;-50
2022/11/16 07:32:43;;;;;;;;;;;12.50;71.90;;;7.95;100.00;94477.84;4986169;28;19919;-50
2022/11/16 07:35:09;;;;;;;;;;;12.60;71.90;;;7.99;100.00;94479.69;5005040;28;19944;-51
2022/11/16 07:37:35;;;;;;;;;;;12.60;71.90;;;8.07;100.00;94486.25;4989638;28;20009;-49
2022/11/16 07:40:01;;;;;;;;;;;12.70;71.90;;;8.13;100.00;94484.38;4992235;28;19909;-50
2022/11/16 07:42:27;;;;;;;;;;;12.70;71.80;;;8.17;100.00;94488.84;5000265;28;20325;-53
2022/11/16 07:44:55;;;;;;;;;;;12.80;72.60;;;8.19;100.00;94484.06;4985953;28;19964;-51
2022/11/16 07:47:21;;;;;;;;;;;12.80;71.80;;;8.15;100.00;94490.16;4991172;28;20478;-54
2022/11/16 07:49:49;;;;;;;;;;;12.80;71.60;;;8.18;100.00;94497.56;4989661;28;19968;-50
2022/11/16 07:52:18;;;;;;;;;;;12.80;71.60;;;8.21;100.00;94502.34;4975171;28;19910;-53
2022/11/16 07:54:47;;;;;;;;;;;12.90;71.60;;;8.20;100.00;94504.19;4991668;28;19914;-51
2022/11/16 07:57:15;;;;;;;;;;;12.80;71.50;;;8.18;100.00;94503.69;4983444;28;19910;-53
2022/11/16 07:59:47;;;;;;;;;;;12.80;71.50;;;8.15;100.00;94504.25;4984150;28;20016;-53
2022/11/16 08:02:13;;;;;;;;;;;12.80;71.40;;;8.14;100.00;94505.31;4970336;28;19910;-54
2022/11/16 08:04:50;;;;;;;;;;;12.80;71.40;;;8.10;100.00;94502.41;4985865;28;19913;-54
2022/11/16 08:07:20;;;;;;;;;;;12.80;71.20;;;8.15;100.00;94500.78;5006555;28;19917;-53
2022/11/16 08:09:47;;;;;;;;;;;12.90;71.20;;;8.17;100.00;94503.97;4988380;28;20291;-57
2022/11/16 08:12:19;;;;;;;;;;;12.90;71.20;;;8.15;100.00;94509.56;4990951;28;19909;-49
2022/11/16 08:14:48;;;;;;;;;;;12.90;71.10;;;8.12;100.00;94510.09;5001553;28;20007;-50
2022/11/16 08:17:13;;;;;;;;;;;13.00;71.10;;;8.15;100.00;94508.75;4997499;28;19913;-53
2022/11/16 08:19:49;;;;;;;;;;;13.00;71.20;;;8.25;100.00;94509.47;4991154;28;20280;-51
2022/11/16 08:22:18;;;;;;;;;;;13.10;71.30;;;8.34;100.00;94517.66;4989329;28;19909;-53
2022/11/16 08:24:50;;;;;;;;;;;13.30;71.30;;;8.61;100.00;94513.75;4990366;28;20091;-48
2022/11/16 08:27:16;;;;;;;;;;;13.50;71.40;;;8.87;100.00;94514.34;4968920;28;19920;-49
2022/11/16 08:29:42;;;;;;;;;;;13.80;71.60;;;9.13;100.00;94514.91;4990921;28;19914;-51
2022/11/16 08:32:07;;;;;;;;;;;14.10;71.60;;;9.34;100.00;94510.97;4989315;28;19920;-53
2022/11/16 08:34:48;;;;;;;;;;;14.30;71.60;;;9.53;100.00;94511.03;4988465;28;19959;-49
2022/11/16 08:37:14;;;;;;;;;;;14.50;71.60;;;9.64;100.00;94506.38;4996138;28;20004;-48
2022/11/16 08:39:40;;;;;;;;;;;14.60;71.40;;;9.69;100.00;94499.13;5007502;28;20482;-48
2022/11/16 08:42:06;;;;;;;;;;;14.80;71.20;;;9.83;100.00;94493.91;5009628;28;20000;-48
2022/11/16 08:44:44;;;;;;;;;;;15.00;70.70;;;10.10;100.00;94492.50;5012751;28;19908;-53
2022/11/16 08:47:09;;;;;;;;;;;15.40;70.40;;;10.22;100.00;94492.84;5027402;28;20413;-50
2022/11/16 08:49:38;;;;;;;;;;;15.70;70.00;;;10.53;100.00;94503.88;4994013;28;19913;-48
2022/11/16 08:52:04;;;;;;;;;;;16.00;69.60;;;10.75;99.04;94510.44;4979007;28;20379;-51
2022/11/16 08:54:33;;;;;;;;;;;16.30;69.40;;;10.94;97.20;94505.88;5009368;28;19909;-49
2022/11/16 08:57:07;;;;;;;;;;;16.60;69.10;;;11.17;94.60;94511.34;5009427;28;19909;-51
2022/11/16 08:59:33;;;;;;;;;;;17.00;68.60;;;11.46;92.78;94511.06;5014558;28;19920;-53
2022/11/16 09:02:09;;;;;;;;;;;17.30;68.10;;;11.70;90.32;94502.88;5014363;28;19912;-49
2022/11/16 09:04:34;;;;;;;;;;;17.70;67.80;;;11.90;88.07;94499.81;4978525;28;20011;-50
2022/11/16 09:07:03;;;;;;;;;;;18.10;67.40;;;12.21;87.60;94510.63;5009529;28;19996;-51
2022/11/16 09:09:32;;;;;;;;;;;18.40;66.90;;;12.30;85.73;94501.94;5003838;28;19919;-53
2022/11/16 09:12:00;;;;;;;;;;;18.80;66.30;;;12.54;83.99;94502.44;5031393;28;19909;-49
2022/11/16 09:14:27;;;;;;;;;;;19.10;65.60;;;12.90;84.19;94496.25;5016239;28;19916;-54
2022/11/16 09:17:03;;;;;;;;;;;19.30;64.90;;;13.12;81.03;94504.22;5013939;28;19909;-52
2022/11/16 09:19:37;;;;;;;;;;;19.60;64.30;;;13.10;78.27;94509.13;5008705;28;19908;-50
2022/11/16 09:22:12;;;;;;;;;;;19.90;63.80;;;13.27;79.71;94499.63;5018521;28;20042;-49
2022/11/16 09:24:46;;;;;;;;;;;20.00;63.00;;;13.38;77.35;94504.41;5032996;28;20323;-48
2022/11/16 09:27:21;;;;;;;;;;;20.00;62.90;;;13.55;76.45;94505.56;5005350;28;19978;-48
2022/11/16 09:29:47;;;;;;;;;;;20.20;62.70;;;13.60;76.54;94502.75;5009188;28;19963;-47
2022/11/16 09:32:18;;;;;;;;;;;20.40;62.30;;;13.48;76.06;94510.59;5003959;28;19912;-54
2022/11/16 09:34:44;;;;;;;;;;;20.60;61.30;;;13.62;76.48;94508.59;5012636;28;20003;-50
2022/11/16 09:37:10;;;;;;;;;;;20.80;60.80;;;13.83;76.14;94506.94;4995434;23;20016;-47
2022/11/16 09:39:48;;;;;;;;;;;20.90;60.70;;;13.60;74.83;94503.56;4986077;28;20477;-47
2022/11/16 09:42:57;;;;;;;;;;;21.10;60.30;;;13.63;76.02;94508.28;5013007;28;19909;-47
2022/11/16 09:45:59;;;;;;;;;;;21.20;59.90;;;13.54;74.83;94510.16;5009314;28;19909;-49
2022/11/16 09:48:34;;;;;;;;;;;21.30;59.50;;;13.79;73.14;94505.97;5006732;28;19948;-52
2022/11/16 09:51:07;;;;;;;;;;;21.50;59.40;;;13.81;72.82;94521.72;5014492;28;19966;-54
2022/11/16 09:53:55;;;;;;;;;;;21.70;59.10;;;14.22;72.71;94520.56;5015824;28;20384;-51
2022/11/16 09:56:24;;;;;;;;;;;21.90;59.00;;;14.68;73.54;94524.56;5031041;28;19913;-53
2022/11/16 09:59:24;;;;;;;;;;;22.20;58.90;;;15.14;71.36;94523.13;5014481;28;19917;-52
2022/11/16 10:02:08;;;;;;;;;;;22.50;58.90;;;15.42;70.57;94521.63;4993763;28;19920;-50
2022/11/16 10:04:59;;;;;;;;;;;22.80;59.00;;;15.68;68.28;94518.88;5018849;28;19917;-50
2022/11/16 10:07:53;;;;;;;;;;;22.80;59.10;;;15.60;65.16;94516.19;5019310;28;19909;-49
2022/11/16 10:10:38;;;;;;;;;;;23.00;59.00;;;15.63;66.47;94520.91;5007669;28;20387;-49
2022/11/16 10:13:29;;;;;;;;;;;23.40;58.30;;;15.82;64.19;94507.09;5020625;28;19913;-50
2022/11/16 10:16:27;;;;;;;;;;;23.70;57.80;;;15.87;62.20;94505.03;5024601;28;19913;-53
2022/11/16 10:19:15;;;;;;;;;;;24.10;57.50;;;16.08;62.35;94507.00;5027053;28;19913;-53
2022/11/16 10:22:04;;;;;;;;;;;24.20;57.30;;;16.05;62.48;94497.69;4992654;28;19909;-51
2022/11/16 10:24:56;;;;;;;;;;;24.40;57.20;;;16.34;59.93;94504.13;5023090;28;19919;-50
2022/11/16 10:28:24;;;;;;;;;;;24.60;57.30;;;16.52;59.77;94504.81;5013306;28;19913;-52
2022/11/16 10:31:09;;;;;;;;;;;24.80;57.20;;;16.25;60.75;94492.66;4978259;28;19913;-55
2022/11/16 10:33:39;;;;;;;;;;;24.60;57.20;;;16.28;62.46;94492.78;4988613;28;19959;-49
2022/11/16 10:36:13;;;;;;;;;;;24.30;56.80;;;16.57;58.48;94483.88;5016927;28;19913;-50
2022/11/16 10:38:43;;;;;;;;;;;24.50;56.70;;;16.60;60.81;94482.44;5012544;28;19924;-51
2022/11/16 10:41:36;;;;;;;;;;;24.80;56.30;;;16.71;58.14;94482.84;4997676;28;20403;-54
2022/11/16 10:44:36;;;;;;;;;;;25.20;55.90;;;17.00;56.74;94477.34;4998523;28;19919;-53
2022/11/16 10:47:43;;;;;;;;;;;25.40;55.40;;;17.31;57.32;94476.09;5004933;28;20465;-50
2022/11/16 10:50:36;;;;;;;;;;;25.60;54.80;;;17.47;54.64;94465.47;5021160;28;19921;-51
2022/11/16 10:53:02;;;;;;;;;;;25.80;54.80;;;17.43;58.15;94459.97;5028020;28;19915;-51
2022/11/16 10:55:31;;;;;;;;;;;26.00;53.90;;;17.56;55.09;94461.53;5010543;28;20315;-48
2022/11/16 10:58:05;;;;;;;;;;;26.10;53.40;;;17.48;54.57;94461.63;5010993;28;19952;-48
2022/11/16 11:00:50;;;;;;;;;;;26.20;53.10;;;17.31;54.21;94455.34;4984332;28;20386;-50
2022/11/16 11:03:30;;;;;;;;;;;26.30;52.80;;;17.19;55.12;94455.31;5017960;28;19908;-51
2022/11/16 11:05:57;;;;;;;;;;;26.30;52.30;;;17.17;55.96;94456.75;5013847;28;20024;-49
2022/11/16 11:08:30;;;;;;;;;;;26.30;51.90;;;17.55;55.07;94462.66;5030619;28;19908;-55
2022/11/16 11:14:12;;;;;;;;;;;26.30;51.80;;;17.69;55.07;94451.56;5031100;28;19915;-49
2022/11/16 11:16:40;;;;;;;;;;;26.40;51.90;;;17.56;53.51;94453.47;5012420;28;20007;-54
2022/11/16 11:19:27;;;;;;;;;;;26.50;51.40;;;17.65;54.14;94444.50;5010264;28;20279;-52
2022/11/16 11:21:59;;;;;;;;;;;26.70;51.40;;;17.61;55.14;94446.28;5016298;28;19975;-53
2022/11/16 11:24:27;;;;;;;;;;;26.80;51.40;;;17.66;55.68;94449.53;4993635;28;20439;-50
2022/11/16 11:26:58;;;;;;;;;;;26.70;51.30;;;17.83;54.38;94447.75;5018841;28;19909;-51
2022/11/16 11:29:49;;;;;;;;;;;26.80;51.20;;;18.07;52.52;94442.34;5017670;28;19909;-51
2022/11/16 11:32:18;;;;;;;;;;;27.10;51.20;;;18.39;51.96;94435.19;5022125;28;19913;-53
2022/11/16 11:34:53;;;;;;;;;;;27.50;51.00;;;18.59;51.41;94435.38;5009222;28;20378;-55
2022/11/16 11:37:37;;;;;;;;;;;27.80;50.80;;;18.85;50.57;94432.25;5010081;28;19925;-54
2022/11/16 11:40:25;;;;;;;;;;;28.20;50.60;;;19.21;50.71;94430.50;5002948;28;19920;-51
2022/11/16 11:43:05;;;;;;;;;;;28.70;50.40;;;19.35;48.53;94431.63;5010269;28;19959;-53
2022/11/16 11:45:52;;;;;;;;;;;29.10;50.30;;;19.64;47.86;94435.06;5022208;28;19908;-53
2022/11/16 11:48:38;;;;;;;;;;;29.40;50.10;;;19.79;52.69;94426.16;5014200;28;19996;-51
2022/11/16 11:51:32;;;;;;;;;;;29.70;49.80;;;19.94;48.27;94427.28;5029762;28;19920;-53
2022/11/16 11:54:02;;;;;;;;;;;30.10;49.30;;;19.95;47.81;94425.34;4997540;28;20301;-52
2022/11/16 11:56:32;;;;;;;;;;;30.30;48.60;;;19.99;47.54;94420.81;4996310;28;19916;-54
2022/11/16 11:59:03;;;;;;;;;;;30.50;48.10;;;19.46;46.28;94413.03;5011638;28;19909;-51
2022/11/16 12:02:06;;;;;;;;;;;30.60;46.90;;;19.60;48.01;94413.34;4987361;28;20411;-51
2022/11/16 12:05:34;;;;;;;;;;;30.60;46.10;;;19.64;43.97;94405.34;5016110;28;19913;-53
2022/11/16 12:08:34;;;;;;;;;;;30.30;45.80;;;19.60;46.32;94407.16;5021219;28;20256;-52
2022/11/16 12:11:31;;;;;;;;;;;30.10;45.30;;;19.40;45.26;94409.78;5004018;28;19938;-54
2022/11/16 12:14:27;;;;;;;;;;;30.10;45.00;;;19.62;46.31;94411.09;5020177;28;20317;-51
2022/11/16 12:17:38;;;;;;;;;;;30.00;44.80;;;18.94;45.10;94398.59;4992382;28;19927;-53
2022/11/16 12:20:39;;;;;;;;;;;29.80;44.30;;;18.93;47.79;94402.44;4986616;28;19913;-55
2022/11/16 12:24:01;;;;;;;;;;;29.50;44.00;;;18.10;47.18;94406.66;5009917;28;19970;-54
2022/11/16 12:26:55;;;;;;;;;;;28.80;43.40;;;18.11;47.67;94405.50;5004507;28;20195;-54
2022/11/16 12:29:30;;;;;;;;;;;27.80;43.40;;;17.51;48.90;94407.91;5008309;28;19916;-50
2022/11/16 12:32:30;;;;;;;;;;;27.00;43.80;;;17.08;49.84;94408.47;5001648;28;20279;-50
2022/11/16 12:36:03;;;;;;;;;;;26.30;44.10;;;16.97;51.95;94410.78;5019442;28;19928;-49
2022/11/16 12:39:21;;;;;;;;;;;25.50;44.30;;;17.21;51.84;94407.34;4981583;28;19924;-53